map of HHR home
HHR - Airport
Location
City:  Hawthorne, California, United States
Name:Jack Northrop Field/Hawthorne Municipal Airport
ICAO:KHHR
IATA:HHR
FAA LID:HHR

Details
Type:Airport (Airfield)
Use:Public/Civil
Latitude:33°55'22"N (33.922840)
Longitude:118°20'07"W (-118.335186)
Datum:WGS 1984
Elevation:65 ft (20 m)
Variation:11.99°E (WMM2015 magnetic declination)
-0.09° annual change
Runways:1
Longest:4956 × 100 ft (1511 × 30.5 m), paved

Time
Time Zone:UTC-8 (DST-7)
Local Time:

Weather
METAR:KHHR 131753Z 00000KT 10SM CLR 23/M08 A3003 RMK AO2 SLP167 60000 T02281083 10228 20089 50008

Related Locations
Nearby:
Farthest:ZSE: 11485 mi / 18483 km
St-Pierre (St-Pierre de la Réunion) [Pierrefonds], RE

Find:

   beyond  
but within

Other Information
Maps:
NOTAMs:
Links:
Sources:

  
flag of United States
flag of California
  

Airport Diagram

Airport diagram for HHR

Airport diagram PDF

Sectional Chart

Flight Planning
at skyvector.com

Satellite Image

Google Maps Satellite view

 

Copyright © 2004-2017 Karl L. Swartz. All rights reserved.
The Great Circle Mapper name and logo are trademarks of the Great Circle Mapper.
All other trademarks mentioned herein belong to their respective owners.
Please see credits for attibutions and further copyright information.

  Follow gcmap on Facebook Follow gcmap on Twitter Follow gcmap on Google+ GCmap on LinkedIn

hCard Microformat

Geo Microformat